sensor_id;sensor_type;location;lat;lon;timestamp;P1;durP1;ratioP1;P2;durP2;ratioP2
16385;SDS011;8302;51.154;4.456;2023-07-20T17:22:33;3.92;;;2.03;;
16385;SDS011;8302;51.154;4.456;2023-07-20T17:25:01;4.72;;;2.17;;
16385;SDS011;8302;51.154;4.456;2023-07-20T17:27:32;2.72;;;2.10;;
16385;SDS011;8302;51.154;4.456;2023-07-20T17:30:20;2.58;;;1.63;;
16385;SDS011;8302;51.154;4.456;2023-07-20T17:32:49;3.42;;;2.00;;
16385;SDS011;8302;51.154;4.456;2023-07-20T17:35:18;3.80;;;2.00;;
16385;SDS011;8302;51.154;4.456;2023-07-20T17:37:49;2.85;;;2.55;;
16385;SDS011;8302;51.154;4.456;2023-07-20T17:40:20;2.17;;;1.73;;
16385;SDS011;8302;51.154;4.456;2023-07-20T17:42:52;4.57;;;1.85;;
16385;SDS011;8302;51.154;4.456;2023-07-20T17:45:22;3.53;;;1.90;;
16385;SDS011;8302;51.154;4.456;2023-07-20T17:47:51;3.30;;;2.00;;
16385;SDS011;8302;51.154;4.456;2023-07-20T17:50:19;6.85;;;2.30;;
16385;SDS011;8302;51.154;4.456;2023-07-20T17:52:50;4.18;;;2.33;;
16385;SDS011;8302;51.154;4.456;2023-07-20T17:55:18;2.60;;;2.15;;
16385;SDS011;8302;51.154;4.456;2023-07-20T17:57:48;2.28;;;1.60;;
16385;SDS011;8302;51.154;4.456;2023-07-20T18:00:16;3.20;;;1.55;;
16385;SDS011;8302;51.154;4.456;2023-07-20T18:02:48;3.70;;;2.00;;
16385;SDS011;8302;51.154;4.456;2023-07-20T18:05:19;3.85;;;1.95;;
16385;SDS011;8302;51.154;4.456;2023-07-20T18:07:47;3.08;;;1.90;;
16385;SDS011;8302;51.154;4.456;2023-07-20T18:10:16;5.78;;;2.08;;
16385;SDS011;8302;51.154;4.456;2023-07-20T18:12:45;3.30;;;1.95;;
16385;SDS011;8302;51.154;4.456;2023-07-20T18:15:13;2.05;;;1.65;;
16385;SDS011;8302;51.154;4.456;2023-07-20T18:17:41;2.35;;;1.85;;
16385;SDS011;8302;51.154;4.456;2023-07-20T18:20:09;2.35;;;1.60;;
16385;SDS011;8302;51.154;4.456;2023-07-20T18:22:38;4.30;;;1.70;;
16385;SDS011;8302;51.154;4.456;2023-07-20T18:25:06;3.50;;;1.80;;
16385;SDS011;8302;51.154;4.456;2023-07-20T18:27:36;2.50;;;1.55;;
16385;SDS011;8302;51.154;4.456;2023-07-20T18:30:05;2.67;;;1.83;;
16385;SDS011;8302;51.154;4.456;2023-07-20T18:32:33;2.50;;;1.50;;
16385;SDS011;8302;51.154;4.456;2023-07-20T18:35:02;4.20;;;1.60;;
16385;SDS011;8302;51.154;4.456;2023-07-20T18:37:31;2.33;;;1.63;;
16385;SDS011;8302;51.154;4.456;2023-07-20T18:40:01;3.00;;;1.60;;
16385;SDS011;8302;51.154;4.456;2023-07-20T18:42:32;2.10;;;1.83;;
16385;SDS011;8302;51.154;4.456;2023-07-20T18:45:03;2.47;;;1.80;;
16385;SDS011;8302;51.154;4.456;2023-07-20T18:47:31;2.45;;;1.30;;
16385;SDS011;8302;51.154;4.456;2023-07-20T18:50:00;2.55;;;1.70;;
16385;SDS011;8302;51.154;4.456;2023-07-20T18:52:28;3.13;;;1.90;;
16385;SDS011;8302;51.154;4.456;2023-07-20T18:54:56;2.70;;;2.20;;
16385;SDS011;8302;51.154;4.456;2023-07-20T18:57:24;3.75;;;1.90;;
16385;SDS011;8302;51.154;4.456;2023-07-20T18:59:53;2.88;;;1.58;;
16385;SDS011;8302;51.154;4.456;2023-07-20T19:02:22;1.95;;;1.80;;
16385;SDS011;8302;51.154;4.456;2023-07-20T19:04:51;2.60;;;2.10;;
16385;SDS011;8302;51.154;4.456;2023-07-20T19:07:19;3.03;;;1.83;;
16385;SDS011;8302;51.154;4.456;2023-07-20T19:09:47;2.97;;;1.80;;
16385;SDS011;8302;51.154;4.456;2023-07-20T19:12:15;2.33;;;1.50;;
16385;SDS011;8302;51.154;4.456;2023-07-20T19:14:43;2.65;;;1.52;;
16385;SDS011;8302;51.154;4.456;2023-07-20T19:17:12;2.58;;;1.70;;
16385;SDS011;8302;51.154;4.456;2023-07-20T19:19:41;1.70;;;1.60;;
16385;SDS011;8302;51.154;4.456;2023-07-20T19:22:09;3.05;;;1.60;;
16385;SDS011;8302;51.154;4.456;2023-07-20T19:24:40;3.67;;;1.65;;
16385;SDS011;8302;51.154;4.456;2023-07-20T19:27:08;3.03;;;1.45;;
16385;SDS011;8302;51.154;4.456;2023-07-20T19:29:36;2.72;;;1.70;;
16385;SDS011;8302;51.154;4.456;2023-07-20T19:32:04;2.33;;;2.05;;
16385;SDS011;8302;51.154;4.456;2023-07-20T19:34:32;2.38;;;1.55;;
16385;SDS011;8302;51.154;4.456;2023-07-20T19:37:02;2.90;;;2.05;;
16385;SDS011;8302;51.154;4.456;2023-07-20T19:39:32;4.57;;;2.05;;
16385;SDS011;8302;51.154;4.456;2023-07-20T19:42:00;2.90;;;2.08;;
16385;SDS011;8302;51.154;4.456;2023-07-20T19:44:29;3.20;;;2.08;;
16385;SDS011;8302;51.154;4.456;2023-07-20T19:46:57;2.30;;;1.75;;
16385;SDS011;8302;51.154;4.456;2023-07-20T19:49:26;2.55;;;1.73;;
16385;SDS011;8302;51.154;4.456;2023-07-20T19:51:57;2.80;;;1.98;;
16385;SDS011;8302;51.154;4.456;2023-07-20T19:54:26;3.88;;;2.10;;
16385;SDS011;8302;51.154;4.456;2023-07-20T19:56:56;2.13;;;1.92;;
16385;SDS011;8302;51.154;4.456;2023-07-20T19:59:25;2.47;;;1.85;;
16385;SDS011;8302;51.154;4.456;2023-07-20T20:01:53;2.75;;;1.90;;
16385;SDS011;8302;51.154;4.456;2023-07-20T20:04:23;2.53;;;2.28;;
16385;SDS011;8302;51.154;4.456;2023-07-20T20:06:55;3.58;;;2.33;;
16385;SDS011;8302;51.154;4.456;2023-07-20T20:09:24;2.63;;;2.20;;
16385;SDS011;8302;51.154;4.456;2023-07-20T20:11:54;3.35;;;2.03;;
16385;SDS011;8302;51.154;4.456;2023-07-20T20:14:22;4.50;;;2.25;;
16385;SDS011;8302;51.154;4.456;2023-07-20T20:16:50;3.00;;;2.70;;
16385;SDS011;8302;51.154;4.456;2023-07-20T20:19:18;4.03;;;2.72;;
16385;SDS011;8302;51.154;4.456;2023-07-20T20:21:50;3.67;;;2.70;;
16385;SDS011;8302;51.154;4.456;2023-07-20T20:24:19;3.85;;;2.75;;
16385;SDS011;8302;51.154;4.456;2023-07-20T20:26:47;5.15;;;2.92;;
16385;SDS011;8302;51.154;4.456;2023-07-20T20:29:17;3.58;;;3.00;;
16385;SDS011;8302;51.154;4.456;2023-07-20T20:31:46;4.53;;;2.85;;
16385;SDS011;8302;51.154;4.456;2023-07-20T20:34:14;3.45;;;2.95;;
16385;SDS011;8302;51.154;4.456;2023-07-20T20:36:42;4.68;;;2.88;;
16385;SDS011;8302;51.154;4.456;2023-07-20T20:39:14;4.68;;;3.10;;
16385;SDS011;8302;51.154;4.456;2023-07-20T20:41:44;4.50;;;2.85;;
16385;SDS011;8302;51.154;4.456;2023-07-20T20:44:13;3.95;;;2.97;;
16385;SDS011;8302;51.154;4.456;2023-07-20T20:46:42;3.72;;;2.63;;
16385;SDS011;8302;51.154;4.456;2023-07-20T20:49:11;3.38;;;2.90;;
16385;SDS011;8302;51.154;4.456;2023-07-20T20:51:39;4.55;;;2.78;;
16385;SDS011;8302;51.154;4.456;2023-07-20T20:54:08;4.53;;;2.75;;
16385;SDS011;8302;51.154;4.456;2023-07-20T20:56:37;4.10;;;2.72;;
16385;SDS011;8302;51.154;4.456;2023-07-20T20:59:05;5.50;;;3.30;;
16385;SDS011;8302;51.154;4.456;2023-07-20T21:01:33;4.57;;;2.72;;
16385;SDS011;8302;51.154;4.456;2023-07-20T21:04:03;4.50;;;3.33;;
16385;SDS011;8302;51.154;4.456;2023-07-20T21:06:31;3.78;;;3.17;;
16385;SDS011;8302;51.154;4.456;2023-07-20T21:09:00;3.45;;;3.13;;
16385;SDS011;8302;51.154;4.456;2023-07-20T21:11:28;6.50;;;3.03;;
16385;SDS011;8302;51.154;4.456;2023-07-20T21:13:56;3.58;;;3.00;;
16385;SDS011;8302;51.154;4.456;2023-07-20T21:16:26;4.18;;;3.20;;
16385;SDS011;8302;51.154;4.456;2023-07-20T21:19:05;6.93;;;3.45;;
16385;SDS011;8302;51.154;4.456;2023-07-20T21:21:34;5.03;;;3.58;;
16385;SDS011;8302;51.154;4.456;2023-07-20T21:24:06;6.80;;;3.40;;
16385;SDS011;8302;51.154;4.456;2023-07-20T21:26:34;4.40;;;3.45;;
16385;SDS011;8302;51.154;4.456;2023-07-20T21:29:02;4.50;;;3.00;;
16385;SDS011;8302;51.154;4.456;2023-07-20T21:31:32;3.50;;;3.20;;
16385;SDS011;8302;51.154;4.456;2023-07-20T21:34:01;3.55;;;3.22;;
16385;SDS011;8302;51.154;4.456;2023-07-20T21:36:39;3.38;;;2.80;;
16385;SDS011;8302;51.154;4.456;2023-07-20T21:39:10;4.43;;;3.03;;
16385;SDS011;8302;51.154;4.456;2023-07-20T21:41:39;4.78;;;2.88;;
16385;SDS011;8302;51.154;4.456;2023-07-20T21:44:07;3.28;;;2.60;;
16385;SDS011;8302;51.154;4.456;2023-07-20T21:46:39;4.93;;;3.45;;
16385;SDS011;8302;51.154;4.456;2023-07-20T21:49:17;4.65;;;3.42;;
16385;SDS011;8302;51.154;4.456;2023-07-20T21:51:47;5.50;;;3.63;;
16385;SDS011;8302;51.154;4.456;2023-07-20T21:54:15;3.67;;;3.30;;
16385;SDS011;8302;51.154;4.456;2023-07-20T21:56:43;4.10;;;3.15;;
16385;SDS011;8302;51.154;4.456;2023-07-20T21:59:11;4.75;;;3.83;;
16385;SDS011;8302;51.154;4.456;2023-07-20T22:01:41;4.00;;;3.22;;
16385;SDS011;8302;51.154;4.456;2023-07-20T22:04:24;3.72;;;3.40;;
16385;SDS011;8302;51.154;4.456;2023-07-20T22:06:55;3.22;;;2.88;;
16385;SDS011;8302;51.154;4.456;2023-07-20T22:09:23;4.43;;;3.10;;
16385;SDS011;8302;51.154;4.456;2023-07-20T22:11:52;5.38;;;3.03;;
16385;SDS011;8302;51.154;4.456;2023-07-20T22:14:20;3.50;;;3.15;;
16385;SDS011;8302;51.154;4.456;2023-07-20T22:16:49;4.13;;;3.00;;
16385;SDS011;8302;51.154;4.456;2023-07-20T22:19:17;3.50;;;3.00;;
16385;SDS011;8302;51.154;4.456;2023-07-20T22:21:46;5.32;;;3.40;;
16385;SDS011;8302;51.154;4.456;2023-07-20T22:24:15;3.70;;;3.30;;
16385;SDS011;8302;51.154;4.456;2023-07-20T22:26:43;3.70;;;3.33;;
16385;SDS011;8302;51.154;4.456;2023-07-20T22:29:11;5.43;;;3.53;;
16385;SDS011;8302;51.154;4.456;2023-07-20T22:31:39;5.72;;;3.45;;
16385;SDS011;8302;51.154;4.456;2023-07-20T22:34:07;4.57;;;3.38;;
16385;SDS011;8302;51.154;4.456;2023-07-20T22:36:35;3.75;;;3.45;;
16385;SDS011;8302;51.154;4.456;2023-07-20T22:39:03;4.90;;;3.50;;
16385;SDS011;8302;51.154;4.456;2023-07-20T22:41:33;6.68;;;4.53;;
16385;SDS011;8302;51.154;4.456;2023-07-20T22:44:00;7.30;;;4.15;;
16385;SDS011;8302;51.154;4.456;2023-07-20T22:46:29;4.28;;;3.80;;
16385;SDS011;8302;51.154;4.456;2023-07-20T22:48:57;6.03;;;4.57;;
16385;SDS011;8302;51.154;4.456;2023-07-20T22:51:25;7.82;;;4.93;;
16385;SDS011;8302;51.154;4.456;2023-07-20T22:53:54;5.88;;;4.38;;
16385;SDS011;8302;51.154;4.456;2023-07-20T22:56:22;9.23;;;4.78;;
16385;SDS011;8302;51.154;4.456;2023-07-20T22:58:58;5.38;;;4.85;;
16385;SDS011;8302;51.154;4.456;2023-07-20T23:01:26;6.97;;;4.82;;
16385;SDS011;8302;51.154;4.456;2023-07-20T23:03:54;6.88;;;5.03;;
16385;SDS011;8302;51.154;4.456;2023-07-20T23:06:24;5.50;;;5.00;;
16385;SDS011;8302;51.154;4.456;2023-07-20T23:08:53;8.50;;;5.07;;
16385;SDS011;8302;51.154;4.456;2023-07-20T23:11:21;5.00;;;4.13;;
16385;SDS011;8302;51.154;4.456;2023-07-20T23:13:50;7.90;;;5.80;;
16385;SDS011;8302;51.154;4.456;2023-07-20T23:16:20;6.65;;;4.95;;
16385;SDS011;8302;51.154;4.456;2023-07-20T23:18:49;5.40;;;4.63;;
16385;SDS011;8302;51.154;4.456;2023-07-20T23:21:17;6.13;;;4.55;;
16385;SDS011;8302;51.154;4.456;2023-07-20T23:23:45;6.05;;;4.88;;
16385;SDS011;8302;51.154;4.456;2023-07-20T23:26:13;6.03;;;5.05;;
16385;SDS011;8302;51.154;4.456;2023-07-20T23:28:41;8.40;;;6.22;;
16385;SDS011;8302;51.154;4.456;2023-07-20T23:31:09;6.57;;;5.35;;
16385;SDS011;8302;51.154;4.456;2023-07-20T23:33:38;6.28;;;5.20;;
16385;SDS011;8302;51.154;4.456;2023-07-20T23:36:06;5.93;;;4.88;;
16385;SDS011;8302;51.154;4.456;2023-07-20T23:38:35;6.88;;;5.18;;
16385;SDS011;8302;51.154;4.456;2023-07-20T23:41:04;7.13;;;5.53;;
16385;SDS011;8302;51.154;4.456;2023-07-20T23:43:33;5.60;;;4.82;;
16385;SDS011;8302;51.154;4.456;2023-07-20T23:46:01;6.25;;;4.82;;
16385;SDS011;8302;51.154;4.456;2023-07-20T23:48:30;6.13;;;5.30;;
16385;SDS011;8302;51.154;4.456;2023-07-20T23:51:09;5.70;;;4.75;;
16385;SDS011;8302;51.154;4.456;2023-07-20T23:53:40;6.38;;;5.78;;
16385;SDS011;8302;51.154;4.456;2023-07-20T23:56:11;7.53;;;5.63;;
16385;SDS011;8302;51.154;4.456;2023-07-20T23:58:41;6.63;;;4.90;;
